createdAt,value
2019-04-26T14:26:39.835Z,70.75
2019-04-26T14:29:15.160Z,70.60
2019-04-26T14:31:51.264Z,71.42
2019-04-26T14:34:19.879Z,71.26
2019-04-26T14:37:05.586Z,70.98
2019-04-26T14:39:38.225Z,71.05
2019-04-26T14:41:59.225Z,72.69
2019-04-26T14:44:31.230Z,71.82
2019-04-26T14:47:13.210Z,71.50
2019-04-26T14:49:43.001Z,71.19
2019-04-26T14:52:14.078Z,70.48
2019-04-26T14:54:47.583Z,70.55
2019-04-26T14:57:28.451Z,70.52
2019-04-26T15:00:04.984Z,69.93
2019-04-26T15:02:35.080Z,69.76
2019-04-26T15:05:12.116Z,70.10
2019-04-26T15:07:51.111Z,69.90
2019-04-26T15:10:21.518Z,69.86
2019-04-26T15:13:05.834Z,69.88
2019-04-26T15:15:32.068Z,69.85
2019-04-26T15:18:02.963Z,69.95
2019-04-26T15:20:35.223Z,70.01
2019-04-26T15:23:08.621Z,70.19
2019-04-26T15:25:48.457Z,70.37
2019-04-26T15:28:19.269Z,70.39
2019-04-26T15:30:54.218Z,70.31
2019-04-26T15:33:25.861Z,70.24
2019-04-26T15:35:55.526Z,70.55
2019-04-26T15:38:26.585Z,70.38
2019-04-26T15:40:59.371Z,70.48
2019-04-26T15:43:33.517Z,70.56
2019-04-26T15:46:08.190Z,70.64
2019-04-26T15:48:40.069Z,70.62
2019-04-26T15:51:20.137Z,73.55
2019-04-26T15:53:57.014Z,71.36
2019-04-26T15:56:28.542Z,70.75
2019-04-26T16:08:15.757Z,71.31
2019-04-26T16:10:53.180Z,71.79
2019-04-26T16:13:25.966Z,72.53
2019-04-26T16:15:59.567Z,71.80
2019-04-26T16:18:32.420Z,71.60
2019-04-26T16:21:04.931Z,71.45
2019-04-26T16:23:41.597Z,71.49
2019-04-26T16:26:15.378Z,72.41
2019-04-26T16:28:48.070Z,72.21
2019-04-26T16:31:29.246Z,72.41
2019-04-26T16:34:10.919Z,73.20
2019-04-26T16:36:45.305Z,73.54
2019-04-26T16:39:17.130Z,74.64
2019-04-26T16:41:49.803Z,74.94
2019-04-26T16:44:29.557Z,74.65
2019-04-26T16:47:03.580Z,75.48
2019-04-26T16:49:41.935Z,74.61
2019-04-26T16:52:13.583Z,75.69
2019-04-26T16:54:52.997Z,76.42
2019-04-26T16:57:25.749Z,75.32
2019-04-26T17:00:00.237Z,75.13
2019-04-26T17:02:36.463Z,75.29
2019-04-26T17:05:17.671Z,76.05
2019-04-26T17:07:53.751Z,75.95
2019-04-26T17:10:24.789Z,75.32
2019-04-26T17:12:57.950Z,75.15
2019-04-26T17:15:32.625Z,75.12
2019-04-26T17:18:14.712Z,76.72
2019-04-26T17:20:55.536Z,75.88
2019-04-26T17:23:33.418Z,76.57
2019-04-26T17:26:06.920Z,74.28
2019-04-26T17:28:39.451Z,74.50
2019-04-26T17:31:12.550Z,75.41
2019-04-26T17:33:45.855Z,74.27
2019-04-26T17:36:19.147Z,77.47
2019-04-26T17:38:56.159Z,77.62
2019-04-26T17:41:31.086Z,76.62
2019-04-26T17:44:10.617Z,77.00
2019-04-26T17:46:42.015Z,74.32
2019-04-26T17:49:21.418Z,76.40
2019-04-26T17:51:57.854Z,73.63
2019-04-26T17:54:46.187Z,75.31
2019-04-26T17:57:14.325Z,75.30
2019-04-26T18:00:06.452Z,73.71
2019-04-26T18:02:41.325Z,75.06
2019-04-26T18:05:05.620Z,76.52
2019-04-26T18:07:55.874Z,76.57
2019-04-26T18:10:21.755Z,74.68
2019-04-26T18:12:58.024Z,75.69
2019-04-26T18:15:30.763Z,76.50
2019-04-26T18:18:05.104Z,74.21
2019-04-26T18:20:41.442Z,76.53
2019-04-26T18:23:15.443Z,73.80
2019-04-26T18:25:48.658Z,75.48
2019-04-26T18:28:28.355Z,73.81
2019-04-26T18:31:06.560Z,74.20
2019-04-26T18:33:46.427Z,74.26
2019-04-26T18:36:19.309Z,74.38
2019-04-26T18:38:53.648Z,75.94
2019-04-26T18:41:28.681Z,74.37
2019-04-26T18:44:06.047Z,74.32
2019-04-26T18:46:44.834Z,74.04
2019-04-26T18:49:20.662Z,74.15
2019-04-26T18:51:50.437Z,75.37
2019-04-26T18:54:26.197Z,74.61
2019-04-26T18:57:00.681Z,75.49
2019-04-26T18:59:44.788Z,74.15
2019-04-26T19:02:23.539Z,75.37
2019-04-26T19:04:55.871Z,73.74
2019-04-26T19:07:32.355Z,75.41
2019-04-26T19:10:05.445Z,73.87
2019-04-26T19:12:41.219Z,74.31
2019-04-26T19:15:21.833Z,75.65
2019-04-26T19:17:55.914Z,74.52
2019-04-26T19:20:30.385Z,75.29
2019-04-26T19:23:05.551Z,74.37
2019-04-26T19:25:41.503Z,75.03
2019-04-26T19:28:14.836Z,74.88
2019-04-26T19:30:50.854Z,75.58
2019-04-26T19:33:22.127Z,76.15
2019-04-26T19:35:55.340Z,75.38
2019-04-26T19:38:28.049Z,76.14
2019-04-26T19:41:02.681Z,75.55
2019-04-26T19:43:39.240Z,73.35
2019-04-26T19:46:16.918Z,73.13
2019-04-26T19:48:49.493Z,72.85
2019-04-26T19:51:27.101Z,73.57
2019-04-26T19:53:59.587Z,71.94
2019-04-26T19:56:34.016Z,71.32
2019-04-26T19:59:07.099Z,73.93
2019-04-26T20:01:41.972Z,71.54
2019-04-26T20:04:15.862Z,72.05
2019-04-26T20:06:54.076Z,72.69
2019-04-26T20:09:26.386Z,73.40
2019-04-26T20:11:59.217Z,72.84
2019-04-26T20:14:49.179Z,73.80
2019-04-26T20:17:21.818Z,71.82
2019-04-26T20:20:02.043Z,73.37
2019-04-26T20:22:36.276Z,72.72
2019-04-26T20:25:09.119Z,71.32
2019-04-26T20:27:42.984Z,72.39
2019-04-26T20:30:27.847Z,72.51
2019-04-26T20:33:01.752Z,71.55
2019-04-26T20:35:34.455Z,72.45
2019-04-26T20:38:07.808Z,73.44
2019-04-26T20:40:43.524Z,71.99
2019-04-26T20:43:25.807Z,71.72
2019-04-26T20:46:08.724Z,73.62
2019-04-26T20:48:25.591Z,72.61
2019-04-26T20:50:59.554Z,72.17
2019-04-26T20:53:39.925Z,72.68
2019-04-26T20:56:09.458Z,72.54
2019-04-26T20:58:43.192Z,73.03
2019-04-26T21:01:28.987Z,72.04
2019-04-26T21:04:02.058Z,71.78
2019-04-26T21:06:43.581Z,73.41
2019-04-26T21:09:18.032Z,73.10
2019-04-26T21:11:51.661Z,71.74
2019-04-26T21:14:24.921Z,72.28
2019-04-26T21:16:58.189Z,72.19
2019-04-26T21:19:32.754Z,72.00
2019-04-26T21:22:05.317Z,72.33
2019-04-26T21:24:50.534Z,72.54
2019-04-26T21:27:25.897Z,72.99
2019-04-26T21:29:59.048Z,71.68
2019-04-26T21:32:35.472Z,72.05
2019-04-26T21:35:11.393Z,72.50
2019-04-26T21:37:49.453Z,72.57
2019-04-26T21:40:23.210Z,70.99
2019-04-26T21:42:59.591Z,72.65
2019-04-26T21:45:31.172Z,72.41
2019-04-26T21:48:06.835Z,72.41
2019-04-26T21:50:39.180Z,72.35
2019-04-26T21:53:13.343Z,72.11
2019-04-26T21:55:46.850Z,72.74
2019-04-26T21:58:19.668Z,72.84
2019-04-26T22:00:56.225Z,72.28
2019-04-26T22:03:29.822Z,72.90
2019-04-26T22:06:04.179Z,72.35
2019-04-26T22:08:38.269Z,72.14
2019-04-26T22:11:14.036Z,72.57
2019-04-26T22:13:47.111Z,72.70
2019-04-26T22:16:34.160Z,73.56
2019-04-26T22:19:08.745Z,73.80
2019-04-26T22:21:43.555Z,72.54
2019-04-26T22:24:17.904Z,73.17
2019-04-26T22:26:53.221Z,73.95
2019-04-26T22:29:25.833Z,74.67
2019-04-26T22:32:05.984Z,73.59
2019-04-26T22:34:41.317Z,73.28
2019-04-26T22:37:29.523Z,74.53
2019-04-26T22:39:55.991Z,75.24
2019-04-26T22:42:32.981Z,74.80
2019-04-26T22:45:09.362Z,74.63
2019-04-26T22:47:43.361Z,75.10
2019-04-26T22:50:21.029Z,75.32
2019-04-26T22:52:52.466Z,74.46
2019-04-26T22:55:27.480Z,74.39
2019-04-26T22:58:06.783Z,75.24
2019-04-26T23:00:43.609Z,75.64
2019-04-26T23:03:18.109Z,75.27
2019-04-26T23:05:53.328Z,74.40
2019-04-26T23:08:26.025Z,74.92
2019-04-26T23:11:02.438Z,75.44
2019-04-26T23:13:37.896Z,74.97
2019-04-26T23:16:14.452Z,76.31
2019-04-26T23:18:47.052Z,76.09
2019-04-26T23:21:24.889Z,75.79
2019-04-26T23:23:58.273Z,75.82
2019-04-26T23:26:37.482Z,76.22
2019-04-26T23:29:15.465Z,76.79
2019-04-26T23:31:50.334Z,76.81
2019-04-26T23:34:33.700Z,75.73
2019-04-26T23:37:06.539Z,75.93
2019-04-26T23:39:44.509Z,77.12
2019-04-26T23:42:16.384Z,77.71
2019-04-26T23:44:48.848Z,76.31
2019-04-26T23:47:23.723Z,76.94
2019-04-26T23:49:57.102Z,76.99
2019-04-26T23:52:30.169Z,77.32
2019-04-26T23:55:08.770Z,76.60
2019-04-26T23:57:41.108Z,77.23
